EGTE

Exeter International Airport

Exeter, United Kingdom
METAR EGTE 152150Z 20011KT 9999 FEW010 BKN018 19/17 Q1015
Observed Flight Rules
Aug-15 @ 21:50 UTC (38 minutes ago) Marginal Visual Flight Rules
Wind Visibility Clouds
200° at 11 knots 10,000+ meters
  • Few at 1,000' AGL
  • Broken at 1,800' AGL
Temperatures Readings
Current 19°C / 66°F
Dewpoint 17°C / 63°F
Humidity 88%
Altimeter 29.97" Hg
Pressure 1015 hPa
Elevation 30
METAR EGTE 152150Z 20011KT 9999 FEW010 BKN018 19/17 Q1015
Observed Flight Rules
Aug-15 @ 21:50 UTC
(38 minutes ago)
MVFR
Wind Visibility
200° at 11 knots 10,000+ meters
Clouds
  • Few at 1,000' AGL
  • Broken at 1,800' AGL
Temperature Dewpoint
19°C / 66°F 17°C / 63°F
Humidity Altimeter Pressure
88% 29.97" Hg 1015 hPa